createdAt,value
2018-02-08T00:01:49.041Z,-5.00
2018-02-08T00:04:16.612Z,-5.00
2018-02-08T00:06:44.185Z,-5.00
2018-02-08T00:09:11.770Z,-5.10
2018-02-08T00:11:40.281Z,-5.00
2018-02-08T00:14:07.873Z,-5.10
2018-02-08T00:16:35.432Z,-5.00
2018-02-08T00:19:03.141Z,-5.00
2018-02-08T00:21:31.473Z,-5.10
2018-02-08T00:23:59.802Z,-5.10
2018-02-08T00:26:27.376Z,-5.20
2018-02-08T00:28:54.936Z,-5.10
2018-02-08T00:31:22.907Z,-5.20
2018-02-08T00:33:50.478Z,-5.30
2018-02-08T00:36:18.034Z,-5.30
2018-02-08T00:38:45.598Z,-5.20
2018-02-08T00:41:13.170Z,-5.20
2018-02-08T00:43:40.754Z,-5.30
2018-02-08T00:46:08.377Z,-5.30
2018-02-08T00:48:36.240Z,-5.30
2018-02-08T00:51:03.803Z,-5.40
2018-02-08T00:53:31.357Z,-5.40
2018-02-08T00:55:58.984Z,-5.40
2018-02-08T00:58:27.337Z,-5.50
2018-02-08T01:00:55.744Z,-5.50
2018-02-08T01:03:24.130Z,-5.50
2018-02-08T01:05:52.554Z,-5.60
2018-02-08T01:08:20.253Z,-5.60
2018-02-08T01:10:47.877Z,-5.60
2018-02-08T01:13:15.455Z,-5.50
2018-02-08T01:15:43.019Z,-5.50
2018-02-08T01:18:10.582Z,-5.50
2018-02-08T01:20:38.172Z,-5.60
2018-02-08T01:23:05.748Z,-5.60
2018-02-08T01:25:33.335Z,-5.60
2018-02-08T01:28:00.977Z,-5.60
2018-02-08T01:30:28.661Z,-5.60
2018-02-08T01:32:56.224Z,-5.60
2018-02-08T01:35:23.798Z,-5.70
2018-02-08T01:37:51.354Z,-5.60
2018-02-08T01:40:18.978Z,-5.70
2018-02-08T01:42:47.320Z,-5.70
2018-02-08T01:45:15.646Z,-5.80
2018-02-08T01:47:43.227Z,-5.80
2018-02-08T01:50:10.777Z,-5.70
2018-02-08T01:52:38.305Z,-5.70
2018-02-08T01:55:06.650Z,-5.70
2018-02-08T01:57:34.251Z,-5.80
2018-02-08T02:00:01.818Z,-5.80
2018-02-08T02:02:30.161Z,-5.80
2018-02-08T02:04:57.766Z,-5.80
2018-02-08T02:07:26.469Z,-5.80
2018-02-08T02:09:54.026Z,-5.90
2018-02-08T02:12:21.593Z,-5.90
2018-02-08T02:14:49.316Z,-5.90
2018-02-08T02:17:17.654Z,-6.00
2018-02-08T02:19:45.225Z,-6.00
2018-02-08T02:22:12.921Z,-6.00
2018-02-08T02:24:40.550Z,-6.00
2018-02-08T02:27:08.127Z,-6.00
2018-02-08T02:29:36.486Z,-6.00
2018-02-08T02:32:04.053Z,-6.00
2018-02-08T02:34:31.636Z,-6.10
2018-02-08T02:36:59.201Z,-6.10
2018-02-08T02:39:27.582Z,-6.00
2018-02-08T02:41:55.934Z,-6.00
2018-02-08T02:44:23.512Z,-6.00
2018-02-08T02:46:51.834Z,-6.00
2018-02-08T02:49:19.394Z,-6.00
2018-02-08T02:51:47.022Z,-6.00
2018-02-08T02:54:15.453Z,-6.00
2018-02-08T02:56:43.063Z,-6.00
2018-02-08T02:59:11.486Z,-6.00
2018-02-08T03:01:39.053Z,-6.00
2018-02-08T03:04:06.655Z,-6.00
2018-02-08T03:06:35.070Z,-6.10
2018-02-08T03:09:03.386Z,-6.10
2018-02-08T03:11:30.947Z,-6.10
2018-02-08T03:13:58.502Z,-6.10
2018-02-08T03:16:26.093Z,-6.10
2018-02-08T03:18:53.671Z,-6.20
2018-02-08T03:21:21.273Z,-6.20
2018-02-08T03:23:48.882Z,-6.20
2018-02-08T03:26:16.436Z,-6.20
2018-02-08T03:28:44.760Z,-6.30
2018-02-08T03:31:12.325Z,-6.30
2018-02-08T03:33:40.047Z,-6.30
2018-02-08T03:36:08.360Z,-6.30
2018-02-08T03:38:35.915Z,-6.40
2018-02-08T03:41:04.237Z,-6.40
2018-02-08T03:43:31.799Z,-6.40
2018-02-08T03:45:59.350Z,-6.30
2018-02-08T03:48:26.933Z,-6.30
2018-02-08T03:50:54.469Z,-6.30
2018-02-08T03:53:22.080Z,-6.40
2018-02-08T03:55:49.730Z,-6.40
2018-02-08T03:58:18.053Z,-6.40
2018-02-08T04:00:45.645Z,-6.40
2018-02-08T04:03:13.197Z,-6.40
2018-02-08T04:05:40.750Z,-6.40
2018-02-08T04:08:08.308Z,-6.50
2018-02-08T04:10:35.881Z,-6.40
2018-02-08T04:13:03.649Z,-6.50
2018-02-08T04:15:31.204Z,-6.50
2018-02-08T04:17:58.873Z,-6.50
2018-02-08T04:20:26.425Z,-6.50
2018-02-08T04:22:53.997Z,-6.50
2018-02-08T04:25:21.641Z,-6.50
2018-02-08T04:27:49.196Z,-6.50
2018-02-08T04:30:16.818Z,-6.50
2018-02-08T04:32:44.561Z,-6.40
2018-02-08T04:35:12.148Z,-6.40
2018-02-08T04:37:39.806Z,-6.50
2018-02-08T04:40:19.239Z,-6.50
2018-02-08T04:42:58.594Z,-6.50
2018-02-08T04:45:37.897Z,-6.50
2018-02-08T04:48:07.480Z,-6.50
2018-02-08T04:50:35.086Z,-6.60
2018-02-08T04:53:12.571Z,-6.60
2018-02-08T04:55:40.900Z,-6.60
2018-02-08T04:58:08.488Z,-6.60
2018-02-08T05:00:36.080Z,-6.60
2018-02-08T05:03:03.647Z,-6.60
2018-02-08T05:05:31.211Z,-6.70
2018-02-08T05:07:58.770Z,-6.70
2018-02-08T05:10:26.497Z,-6.60
2018-02-08T05:12:54.032Z,-6.60
2018-02-08T05:15:21.613Z,-6.70
2018-02-08T05:17:49.324Z,-6.70
2018-02-08T05:20:16.874Z,-6.70
2018-02-08T05:22:45.189Z,-6.60
2018-02-08T05:25:12.800Z,-6.60
2018-02-08T05:27:40.364Z,-6.60
2018-02-08T05:30:07.923Z,-6.60
2018-02-08T05:32:35.482Z,-6.70
2018-02-08T05:35:03.033Z,-6.70
2018-02-08T05:37:30.593Z,-6.70
2018-02-08T05:39:58.188Z,-6.70
2018-02-08T05:42:25.799Z,-6.70
2018-02-08T05:44:53.317Z,-6.80
2018-02-08T05:47:20.896Z,-6.80
2018-02-08T05:49:49.222Z,-6.80
2018-02-08T05:52:16.978Z,-6.80
2018-02-08T05:54:44.545Z,-6.80
2018-02-08T05:57:12.113Z,-6.80
2018-02-08T05:59:39.721Z,-6.80
2018-02-08T06:02:08.043Z,-6.80
2018-02-08T06:04:35.605Z,-6.80
2018-02-08T06:07:03.163Z,-6.80
2018-02-08T06:09:30.725Z,-6.90
2018-02-08T06:11:58.328Z,-6.80
2018-02-08T06:14:25.944Z,-6.90
2018-02-08T06:16:53.528Z,-7.00
2018-02-08T06:19:21.890Z,-7.00
2018-02-08T06:21:50.251Z,-6.90
2018-02-08T06:24:17.806Z,-7.00
2018-02-08T06:26:46.146Z,-6.80
2018-02-08T06:29:13.711Z,-6.80
2018-02-08T06:31:42.052Z,-6.70
2018-02-08T06:34:09.646Z,-6.70
2018-02-08T06:36:37.294Z,-6.70
2018-02-08T06:39:04.836Z,-6.70
2018-02-08T06:41:32.413Z,-6.80
2018-02-08T06:44:00.033Z,-6.90
2018-02-08T06:46:27.573Z,-6.90
2018-02-08T06:48:55.985Z,-6.90
2018-02-08T06:51:23.565Z,-7.00
2018-02-08T06:53:51.165Z,-6.90
2018-02-08T06:56:18.746Z,-6.90
2018-02-08T06:58:47.069Z,-6.90
2018-02-08T07:01:14.854Z,-6.90
2018-02-08T07:03:42.405Z,-6.90
2018-02-08T07:06:10.061Z,-6.90
2018-02-08T07:08:37.636Z,-6.80
2018-02-08T07:11:05.228Z,-6.80
2018-02-08T07:13:32.865Z,-6.70
2018-02-08T07:16:00.504Z,-6.70
2018-02-08T07:18:28.089Z,-6.60
2018-02-08T07:20:55.770Z,-6.60
2018-02-08T07:23:24.135Z,-6.50
2018-02-08T07:25:51.690Z,-6.50
2018-02-08T07:28:19.292Z,-6.40
2018-02-08T07:30:47.746Z,-6.20
2018-02-08T07:33:15.549Z,-6.30
2018-02-08T07:35:43.862Z,-6.10
2018-02-08T07:38:11.439Z,-6.10
2018-02-08T07:40:39.081Z,-5.90
2018-02-08T07:43:06.717Z,-5.90
2018-02-08T07:45:34.305Z,-5.70
2018-02-08T07:48:01.892Z,-5.60
2018-02-08T07:50:30.330Z,-5.40
2018-02-08T07:52:57.901Z,-5.40
2018-02-08T07:55:25.478Z,-5.20
2018-02-08T07:57:53.122Z,-5.10
2018-02-08T08:00:20.704Z,-5.00
2018-02-08T08:02:48.555Z,-4.80
2018-02-08T08:05:16.124Z,-4.70
2018-02-08T08:07:43.689Z,-4.60
2018-02-08T08:10:11.356Z,-4.40
2018-02-08T08:12:38.929Z,-4.40
2018-02-08T08:15:06.501Z,-4.20
2018-02-08T08:17:34.071Z,-4.10
2018-02-08T08:20:02.409Z,-3.80
2018-02-08T08:22:29.994Z,-3.80
2018-02-08T08:24:57.563Z,-3.60
2018-02-08T08:27:25.153Z,-3.60
2018-02-08T08:29:53.490Z,-3.40
2018-02-08T08:32:21.082Z,-3.40
2018-02-08T08:34:48.693Z,-3.30
2018-02-08T08:37:16.261Z,-3.20
2018-02-08T08:39:43.833Z,-3.20
2018-02-08T08:42:11.425Z,-3.10
2018-02-08T08:44:38.989Z,-3.00
2018-02-08T08:47:07.333Z,-2.80
2018-02-08T08:49:34.909Z,-2.80
2018-02-08T08:52:02.492Z,-2.50
2018-02-08T08:54:31.862Z,-2.20
2018-02-08T08:56:59.781Z,-2.20
2018-02-08T08:59:28.137Z,-1.90
2018-02-08T09:01:55.729Z,-2.00
2018-02-08T09:04:23.370Z,-1.90
2018-02-08T09:06:50.929Z,-1.70
2018-02-08T09:09:19.278Z,-1.20
2018-02-08T09:11:46.832Z,-1.30
2018-02-08T09:14:14.391Z,-0.70
2018-02-08T09:16:42.000Z,-0.70
2018-02-08T09:19:10.437Z,-0.50
2018-02-08T09:21:38.000Z,-0.50
2018-02-08T09:24:05.631Z,-0.10
2018-02-08T09:26:33.239Z,-0.20
2018-02-08T09:29:00.837Z,0.00
2018-02-08T09:31:28.419Z,0.10
2018-02-08T09:33:56.189Z,0.10
2018-02-08T09:36:23.769Z,0.00
2018-02-08T09:38:51.361Z,0.20
2018-02-08T09:41:18.882Z,0.10
2018-02-08T09:43:46.449Z,0.30
2018-02-08T09:46:14.001Z,0.30
2018-02-08T09:48:41.578Z,0.40
2018-02-08T09:51:09.179Z,0.80
2018-02-08T09:53:36.738Z,1.30
2018-02-08T09:56:05.072Z,2.20
2018-02-08T09:58:32.725Z,2.20
2018-02-08T10:01:00.286Z,2.30
2018-02-08T10:03:27.846Z,2.40
2018-02-08T10:05:55.439Z,3.00
2018-02-08T10:08:22.995Z,3.10
2018-02-08T10:10:50.553Z,2.60
2018-02-08T10:13:18.121Z,2.60
2018-02-08T10:15:46.841Z,3.20
2018-02-08T10:18:14.403Z,3.10
2018-02-08T10:20:42.018Z,3.30
2018-02-08T10:23:09.592Z,3.20
2018-02-08T10:25:37.170Z,3.70
2018-02-08T10:28:05.511Z,4.20
2018-02-08T10:30:33.067Z,4.20
2018-02-08T10:33:00.631Z,4.50
2018-02-08T10:35:28.222Z,5.30
2018-02-08T10:37:56.533Z,5.60
2018-02-08T10:40:24.120Z,5.50
2018-02-08T10:42:51.682Z,5.70
2018-02-08T10:45:19.247Z,6.20
2018-02-08T10:47:46.921Z,6.50
2018-02-08T10:50:14.493Z,6.80
2018-02-08T10:52:42.805Z,6.90
2018-02-08T10:55:10.936Z,6.90
2018-02-08T10:57:38.554Z,6.80
2018-02-08T11:00:06.116Z,6.40
2018-02-08T11:02:33.693Z,6.00
2018-02-08T11:05:01.309Z,6.10
2018-02-08T11:07:29.665Z,6.20
2018-02-08T11:09:57.399Z,6.10
2018-02-08T11:12:24.976Z,6.10
2018-02-08T11:14:52.550Z,5.90
2018-02-08T11:17:20.129Z,5.80
2018-02-08T11:19:48.467Z,5.50
2018-02-08T11:22:16.013Z,5.50
2018-02-08T11:24:43.588Z,5.60
2018-02-08T11:27:11.149Z,5.60
2018-02-08T11:29:38.748Z,5.70
2018-02-08T11:32:07.109Z,5.60
2018-02-08T11:34:34.700Z,5.60
2018-02-08T11:37:03.059Z,5.30
2018-02-08T11:39:30.643Z,5.20
2018-02-08T11:41:58.984Z,4.80
2018-02-08T11:44:26.537Z,4.80
2018-02-08T11:46:54.095Z,5.00
2018-02-08T11:49:21.732Z,4.80
2018-02-08T11:51:49.297Z,4.70
2018-02-08T11:54:16.878Z,4.60
2018-02-08T11:56:44.446Z,4.60
2018-02-08T11:59:11.996Z,4.60
2018-02-08T12:01:39.561Z,4.90
2018-02-08T12:04:07.106Z,4.80
2018-02-08T12:06:34.719Z,4.50
2018-02-08T12:09:02.249Z,4.60
2018-02-08T12:11:29.851Z,4.90
2018-02-08T12:13:57.430Z,5.00
2018-02-08T12:16:25.814Z,4.80
2018-02-08T12:18:54.232Z,4.90
2018-02-08T12:21:21.813Z,4.80
2018-02-08T12:23:49.393Z,5.00
2018-02-08T12:26:17.121Z,5.00
2018-02-08T12:28:44.694Z,5.20
2018-02-08T12:31:12.572Z,5.10
2018-02-08T12:33:40.157Z,5.00
2018-02-08T12:36:08.514Z,5.10
2018-02-08T12:38:36.089Z,5.10
2018-02-08T12:41:04.413Z,4.60
2018-02-08T12:43:31.981Z,4.60
2018-02-08T12:45:59.567Z,4.40
2018-02-08T12:48:27.189Z,4.20
2018-02-08T12:50:55.632Z,4.10
2018-02-08T12:53:23.203Z,4.00
2018-02-08T12:55:50.838Z,4.20
2018-02-08T12:58:18.468Z,4.30
2018-02-08T13:00:46.098Z,4.40
2018-02-08T13:03:13.696Z,4.30
2018-02-08T13:05:41.273Z,4.30
2018-02-08T13:08:09.617Z,4.20
2018-02-08T13:10:37.197Z,4.10
2018-02-08T13:13:04.768Z,4.10
2018-02-08T13:15:32.389Z,4.00
2018-02-08T13:17:59.971Z,4.00
2018-02-08T13:20:27.569Z,4.20
2018-02-08T13:22:55.967Z,4.50
2018-02-08T13:25:23.541Z,4.40
2018-02-08T13:27:51.103Z,4.40
2018-02-08T13:30:18.693Z,4.50
2018-02-08T13:32:46.257Z,4.50
2018-02-08T13:35:13.835Z,4.40
2018-02-08T13:37:41.404Z,4.50
2018-02-08T13:40:12.565Z,4.40
2018-02-08T13:42:40.921Z,4.40
2018-02-08T13:45:08.502Z,4.40
2018-02-08T13:47:56.424Z,4.80
2018-02-08T13:53:31.180Z,4.40
2018-02-08T13:56:04.476Z,4.10
2018-02-08T13:58:38.403Z,3.90
2018-02-08T14:04:08.637Z,4.10
2018-02-08T14:06:36.222Z,4.20
2018-02-08T14:09:04.674Z,4.30
2018-02-08T14:11:32.331Z,4.30
2018-02-08T14:13:59.874Z,4.10
2018-02-08T14:16:27.466Z,4.20
2018-02-08T14:18:55.183Z,4.00
2018-02-08T14:21:22.814Z,4.00
2018-02-08T14:23:50.372Z,4.10
2018-02-08T14:26:18.781Z,4.40
2018-02-08T14:28:46.875Z,4.40
2018-02-08T14:31:14.442Z,4.20
2018-02-08T14:33:42.010Z,4.30
2018-02-08T14:36:09.568Z,4.20
2018-02-08T14:38:37.138Z,4.00
2018-02-08T14:41:04.727Z,3.80
2018-02-08T14:43:32.280Z,3.60
2018-02-08T14:46:00.653Z,3.30
2018-02-08T14:48:28.214Z,3.30
2018-02-08T14:50:55.817Z,3.20
2018-02-08T14:53:27.302Z,3.10
2018-02-08T14:55:54.964Z,3.10
2018-02-08T14:58:22.505Z,3.00
2018-02-08T15:00:50.084Z,2.90
2018-02-08T15:03:17.651Z,2.80
2018-02-08T15:05:45.249Z,2.90
2018-02-08T15:08:12.867Z,2.80
2018-02-08T15:10:40.456Z,2.70
2018-02-08T15:13:08.082Z,2.70
2018-02-08T15:15:35.659Z,2.50
2018-02-08T15:18:03.406Z,2.40
2018-02-08T15:20:31.731Z,2.30
2018-02-08T15:22:59.296Z,2.30
2018-02-08T15:25:26.915Z,2.20
2018-02-08T15:27:54.466Z,2.20
2018-02-08T15:30:22.825Z,2.10
2018-02-08T15:32:50.407Z,2.00
2018-02-08T15:35:18.757Z,1.90
2018-02-08T15:37:46.325Z,1.90
2018-02-08T15:40:13.932Z,1.80
2018-02-08T15:42:41.558Z,1.80
2018-02-08T15:45:09.164Z,1.70
2018-02-08T15:47:36.736Z,1.50
2018-02-08T15:50:04.332Z,1.40
2018-02-08T15:52:32.101Z,1.40
2018-02-08T15:54:59.732Z,1.40
2018-02-08T15:57:27.322Z,1.30
2018-02-08T15:59:54.892Z,1.20
2018-02-08T16:02:22.480Z,1.10
2018-02-08T16:04:51.367Z,1.10
2018-02-08T16:07:20.049Z,1.10
2018-02-08T16:09:47.650Z,1.10
2018-02-08T16:12:15.237Z,0.90
2018-02-08T16:14:42.825Z,0.80
2018-02-08T16:17:10.408Z,0.80
2018-02-08T16:19:38.055Z,0.70
2018-02-08T16:22:05.713Z,0.60
2018-02-08T16:24:33.266Z,0.60
2018-02-08T16:27:00.879Z,0.40
2018-02-08T16:29:28.441Z,0.30
2018-02-08T16:31:56.016Z,0.20
2018-02-08T16:34:23.617Z,0.00
2018-02-08T16:36:51.429Z,-0.10
2018-02-08T16:39:19.016Z,-0.20
2018-02-08T16:41:46.639Z,-0.40
2018-02-08T16:44:14.994Z,-0.50
2018-02-08T16:46:44.685Z,-0.60
2018-02-08T16:49:12.412Z,-0.70
2018-02-08T16:51:40.036Z,-0.80
2018-02-08T16:54:07.632Z,-0.90
2018-02-08T16:56:35.303Z,-0.90
2018-02-08T16:59:02.921Z,-0.90
2018-02-08T17:01:31.267Z,-0.80
2018-02-08T17:03:58.890Z,-0.80
2018-02-08T17:06:26.499Z,-0.80
2018-02-08T17:08:54.057Z,-1.00
2018-02-08T17:11:21.692Z,-1.20
2018-02-08T17:13:49.332Z,-1.40
2018-02-08T17:16:16.927Z,-1.60
2018-02-08T17:18:44.509Z,-1.80
2018-02-08T17:21:12.092Z,-2.00
2018-02-08T17:23:39.648Z,-2.10
2018-02-08T17:26:07.282Z,-2.20
2018-02-08T17:28:34.897Z,-2.40
2018-02-08T17:31:02.519Z,-2.40
2018-02-08T17:33:30.099Z,-2.50
2018-02-08T17:35:57.655Z,-2.50
2018-02-08T17:38:25.214Z,-2.50
2018-02-08T17:40:52.823Z,-2.60
2018-02-08T17:43:21.415Z,-2.60
2018-02-08T17:45:49.000Z,-2.60
2018-02-08T17:48:16.617Z,-2.60
2018-02-08T17:50:44.232Z,-2.70
2018-02-08T17:53:11.808Z,-2.70
2018-02-08T17:55:39.381Z,-2.80
2018-02-08T17:58:07.727Z,-2.70
2018-02-08T18:00:35.305Z,-2.70
2018-02-08T18:03:02.924Z,-2.60
2018-02-08T18:05:30.534Z,-2.50
2018-02-08T18:07:58.708Z,-2.50
2018-02-08T18:10:26.288Z,-2.60
2018-02-08T18:12:54.796Z,-2.80
2018-02-08T18:15:22.389Z,-2.90
2018-02-08T18:17:49.954Z,-2.80
2018-02-08T18:20:17.519Z,-2.80
2018-02-08T18:22:45.124Z,-2.90
2018-02-08T18:25:13.469Z,-3.00
2018-02-08T18:27:41.109Z,-3.00
2018-02-08T18:30:08.685Z,-3.10
2018-02-08T18:32:37.037Z,-3.20
2018-02-08T18:35:04.598Z,-3.20
2018-02-08T18:37:32.339Z,-3.30
2018-02-08T18:40:00.098Z,-3.30
2018-02-08T18:42:41.639Z,-3.40
2018-02-08T18:45:09.204Z,-3.40
2018-02-08T18:47:36.855Z,-3.50
2018-02-08T18:50:05.178Z,-3.50
2018-02-08T18:52:32.806Z,-3.50
2018-02-08T18:55:01.175Z,-3.50
2018-02-08T18:57:29.523Z,-3.50
2018-02-08T18:59:57.114Z,-3.50
2018-02-08T19:02:24.705Z,-3.50
2018-02-08T19:04:53.105Z,-3.50
2018-02-08T19:07:20.871Z,-3.60
2018-02-08T19:09:48.433Z,-3.50
2018-02-08T19:12:16.023Z,-3.50
2018-02-08T19:14:43.601Z,-3.50
2018-02-08T19:17:13.773Z,-3.40
2018-02-08T19:19:45.923Z,-3.30
2018-02-08T19:22:17.019Z,-3.10
2018-02-08T19:24:45.373Z,-3.10
2018-02-08T19:27:12.952Z,-3.00
2018-02-08T19:29:40.669Z,-2.90
2018-02-08T19:32:08.274Z,-2.80
2018-02-08T19:34:35.886Z,-2.80
2018-02-08T19:37:03.472Z,-2.70
2018-02-08T19:39:31.077Z,-2.70
2018-02-08T19:42:00.046Z,-2.60
2018-02-08T19:44:27.617Z,-2.60
2018-02-08T19:46:55.992Z,-2.60
2018-02-08T19:49:24.365Z,-2.60
2018-02-08T19:51:51.924Z,-2.60
2018-02-08T19:54:19.558Z,-2.70
2018-02-08T19:56:47.705Z,-2.70
2018-02-08T19:59:19.514Z,-2.60
2018-02-08T20:01:47.285Z,-2.60
2018-02-08T20:04:14.995Z,-2.70
2018-02-08T20:06:42.653Z,-2.70
2018-02-08T20:09:10.278Z,-2.80
2018-02-08T20:11:38.012Z,-2.70
2018-02-08T20:14:11.269Z,-2.70
2018-02-08T20:16:40.874Z,-2.70
2018-02-08T20:19:08.584Z,-2.70
2018-02-08T20:21:36.201Z,-2.70
2018-02-08T20:24:03.859Z,-2.60
2018-02-08T20:26:31.524Z,-2.50
2018-02-08T20:28:59.179Z,-2.60
2018-02-08T20:31:29.214Z,-2.70
2018-02-08T20:33:56.838Z,-2.70
2018-02-08T20:36:24.436Z,-2.70
2018-02-08T20:38:52.767Z,-2.80
2018-02-08T20:41:21.284Z,-2.80
2018-02-08T20:43:48.897Z,-2.70
2018-02-08T20:46:16.877Z,-2.60
2018-02-08T20:48:44.516Z,-2.60
2018-02-08T20:51:12.158Z,-2.50
2018-02-08T20:53:39.749Z,-2.40
2018-02-08T20:56:07.366Z,-2.50
2018-02-08T20:58:35.008Z,-2.50
2018-02-08T21:01:02.682Z,-2.50
2018-02-08T21:03:34.966Z,-2.60
2018-02-08T21:06:03.457Z,-2.60
2018-02-08T21:08:32.226Z,-2.60
2018-02-08T21:10:59.908Z,-2.60
2018-02-08T21:13:28.503Z,-2.40
2018-02-08T21:15:56.623Z,-2.50
2018-02-08T21:18:24.684Z,-2.50
2018-02-08T21:20:52.872Z,-2.50
2018-02-08T21:23:20.476Z,-2.50
2018-02-08T21:25:48.140Z,-2.60
2018-02-08T21:28:17.819Z,-2.40
2018-02-08T21:30:46.306Z,-2.40
2018-02-08T21:33:14.039Z,-2.40
2018-02-08T21:35:41.964Z,-2.40
2018-02-08T21:38:09.752Z,-2.40
2018-02-08T21:40:37.488Z,-2.40
2018-02-08T21:43:05.320Z,-2.30
2018-02-08T21:45:38.038Z,-2.30
2018-02-08T21:48:05.859Z,-2.30
2018-02-08T21:50:33.596Z,-2.30
2018-02-08T21:53:01.479Z,-2.20
2018-02-08T21:55:29.149Z,-2.20
2018-02-08T21:57:57.093Z,-2.20
2018-02-08T22:00:26.647Z,-2.20
2018-02-08T22:02:54.359Z,-2.20
2018-02-08T22:05:21.929Z,-2.20
2018-02-08T22:07:49.512Z,-2.30
2018-02-08T22:10:17.077Z,-2.40
2018-02-08T22:12:44.680Z,-2.40
2018-02-08T22:15:13.042Z,-2.40
2018-02-08T22:17:40.642Z,-2.40
2018-02-08T22:20:08.355Z,-2.40
2018-02-08T22:22:35.946Z,-2.40
2018-02-08T22:25:04.318Z,-2.40
2018-02-08T22:27:32.681Z,-2.40
2018-02-08T22:30:00.275Z,-2.40
2018-02-08T22:32:28.611Z,-2.50
2018-02-08T22:34:56.253Z,-2.50
2018-02-08T22:37:23.811Z,-2.50
2018-02-08T22:39:51.404Z,-2.50
2018-02-08T22:42:18.973Z,-2.50
2018-02-08T22:44:46.692Z,-2.40
2018-02-08T22:47:14.281Z,-2.50
2018-02-08T22:49:41.865Z,-2.50
2018-02-08T22:52:10.209Z,-2.70
2018-02-08T22:54:37.928Z,-2.70
2018-02-08T22:57:06.276Z,-2.70
2018-02-08T22:59:35.065Z,-2.70
2018-02-08T23:02:02.629Z,-2.70
2018-02-08T23:04:30.622Z,-2.70
2018-02-08T23:06:58.998Z,-2.80
2018-02-08T23:09:27.338Z,-2.80
2018-02-08T23:11:54.942Z,-2.80
2018-02-08T23:14:23.286Z,-2.80
2018-02-08T23:16:50.867Z,-2.80
2018-02-08T23:19:19.242Z,-2.70
2018-02-08T23:21:46.803Z,-2.70
2018-02-08T23:24:14.609Z,-2.70
2018-02-08T23:26:42.166Z,-2.70
2018-02-08T23:29:09.847Z,-2.70
2018-02-08T23:31:37.457Z,-2.70
2018-02-08T23:34:06.542Z,-2.70
2018-02-08T23:36:34.187Z,-2.70
2018-02-08T23:39:01.839Z,-2.70
2018-02-08T23:41:29.901Z,-2.70
2018-02-08T23:43:57.493Z,-2.70
2018-02-08T23:46:25.091Z,-2.80
2018-02-08T23:48:52.724Z,-2.70
2018-02-08T23:51:20.279Z,-2.70
2018-02-08T23:53:48.694Z,-2.70
2018-02-08T23:56:17.041Z,-2.70
2018-02-08T23:58:44.629Z,-2.80
